Detall de PIREP

Printer-friendly versionPDF version

[2008/12/25 20:53:00]
Flight IATA:CT0001
Pilot Number:041
Company ICAO:CAT
Aircraft Type:BE20/A
PAX:4
Departing Airport: LEVC
Destination Airport: LEAL
Alternate Airport:LELC
Online: VATSIM
Route:ASTRO1F ASTRO1N

Flight Level:FL090
No Slew and time accel
No pause
Crash detect
Detect pilot in Cockpit between each 30 and 45 minutes
20:53 Zero fuel Weight: 9623 Lbs, Fuel Weight: 1807 Lbs
20:53 VATSIM:LEVC 252030Z 29002KT CAVOK 03/01 Q1014 NOSIG
20:53 VATSIM:LEAL 252030Z 22006KT CAVOK 07/02 Q1013 NOSIG
20:53 VOICE CATALONIAN
20:59 Parking Brakes off
21:04 Take-off
21:04 Take off Weight: 11375 Lbs
21:04 Wind: 283º @ 002 Knots Heading: 295º
21:04 POS N39º 29´ 20´´ W000º 28´ 52´´
21:04 Flaps:1 at 139 Knots
21:04 Gear Up: 139 Knots
21:04 Flaps:0 at 135 Knots
21:17 TOC
21:17 Fuel Weight: 1570 Lb
21:19 Wind:007º@005 Knots Heading: 234º Ground Speed: 245 Knots Altitude
9051 ft
21:20 TOD
21:20 Fuel Weight: 1539 Lb
21:34 Wind:312º@008 Knots Heading: 115º Ground Speed: 215 Knots Altitude 5000 ft
21:44 Flaps:1 at 164 Knots
21:45 Gear Down: 162 Knots
21:46 Flaps:2 at 150 Knots
21:48 TouchDown:Rate -99 ft/min Speed: 111 Knots
21:49 Wind:253º@003 Knots Heading: 278º Ground Speed: 102 Knots Altitude 144 ft
21:49 Flaps:0 at 86 Knots
21:49 VATSIM:LEAL 252130Z 24005KT CAVOK 06/01 Q1013 NOSIG
21:49 Land
21:49 Wind:253º@003 Knots
21:49 Heading: 280º
21:49 Flight Duration: 00:45
21:49 Landing Weight: 10895 Lbs
21:49 POS N38º 16´ 56´´ W000º 33´ 31´´
21:53 Parking brakes on
21:53 Block to Block Duration: 00:54
21:53 Final Fuel: 1250 Lbls
21:53 Spent Fuel: 557 Lbls
21:53 Flight Length: 159 NM
21:53 TOD Land Length: 102 NM

Exportar CSV

Powered by Drupal - Modified by Danger4k